createdAt,value
2023-04-08T00:00:39.443Z,102295.03
2023-04-08T00:05:43.059Z,102292.31
2023-04-08T00:10:46.274Z,102296.88
2023-04-08T00:15:54.022Z,102290.00
2023-04-08T00:20:57.564Z,102291.94
2023-04-08T00:26:00.563Z,102286.19
2023-04-08T00:31:05.106Z,102298.47
2023-04-08T00:36:08.436Z,102291.88
2023-04-08T00:41:11.754Z,102300.03
2023-04-08T00:46:16.740Z,102301.22
2023-04-08T00:51:20.320Z,102305.31
2023-04-08T00:56:24.283Z,102296.13
2023-04-08T01:01:35.751Z,102304.09
2023-04-08T01:06:43.741Z,102306.50
2023-04-08T01:11:51.947Z,102302.66
2023-04-08T01:16:58.126Z,102306.88
2023-04-08T01:22:10.738Z,102305.88
2023-04-08T01:27:16.091Z,102305.06
2023-04-08T01:32:19.903Z,102310.09
2023-04-08T01:37:24.777Z,102317.25
2023-04-08T01:42:33.740Z,102316.47
2023-04-08T01:47:38.219Z,102319.16
2023-04-08T01:52:42.961Z,102315.41
2023-04-08T01:57:52.046Z,102310.09
2023-04-08T02:02:56.667Z,102319.66
2023-04-08T02:08:00.013Z,102305.22
2023-04-08T02:13:05.503Z,102319.16
2023-04-08T02:18:14.679Z,102317.03
2023-04-08T02:23:21.622Z,102326.00
2023-04-08T02:28:28.715Z,102324.66
2023-04-08T02:33:32.102Z,102330.81
2023-04-08T02:38:35.498Z,102333.22
2023-04-08T02:43:40.227Z,102336.78
2023-04-08T02:48:43.264Z,102341.03
2023-04-08T02:53:46.335Z,102339.47
2023-04-08T02:58:52.411Z,102336.88
2023-04-08T03:03:55.832Z,102342.31
2023-04-08T03:08:59.279Z,102355.97
2023-04-08T03:14:03.789Z,102353.78
2023-04-08T03:19:06.839Z,102363.13
2023-04-08T03:24:09.808Z,102359.47
2023-04-08T03:29:14.168Z,102354.28
2023-04-08T03:34:17.360Z,102345.63
2023-04-08T03:39:21.073Z,102350.63
2023-04-08T03:44:25.948Z,102358.91
2023-04-08T03:49:29.057Z,102365.03
2023-04-08T03:54:32.001Z,102367.97
2023-04-08T03:59:36.925Z,102354.22
2023-04-08T04:04:39.973Z,102386.19
2023-04-08T04:09:43.240Z,102382.25
2023-04-08T04:14:47.814Z,102393.63
2023-04-08T04:19:52.812Z,102392.16
2023-04-08T04:24:55.743Z,102386.94
2023-04-08T04:30:01.612Z,102377.59
2023-04-08T04:35:04.976Z,102405.09
2023-04-08T04:40:09.080Z,102417.38
2023-04-08T04:45:13.748Z,102420.28
2023-04-08T04:50:17.111Z,102424.84
2023-04-08T04:55:20.048Z,102422.97
2023-04-08T05:00:24.912Z,102415.91
2023-04-08T05:05:28.081Z,102422.03
2023-04-08T05:10:31.179Z,102447.19
2023-04-08T05:15:36.108Z,102435.31
2023-04-08T05:20:39.230Z,102451.56
2023-04-08T05:25:42.479Z,102446.81
2023-04-08T05:30:52.093Z,102458.00
2023-04-08T05:35:55.367Z,102463.94
2023-04-08T05:40:58.524Z,102466.84
2023-04-08T05:46:07.754Z,102474.53
2023-04-08T05:51:15.689Z,102463.13
2023-04-08T05:56:18.686Z,102489.53
2023-04-08T06:01:23.212Z,102472.88
2023-04-08T06:06:26.565Z,102483.84
2023-04-08T06:11:29.649Z,102489.13
2023-04-08T06:16:34.193Z,102499.50
2023-04-08T06:21:37.550Z,102501.94
2023-04-08T06:26:40.953Z,102517.22
2023-04-08T06:31:45.843Z,102518.50
2023-04-08T06:36:50.358Z,102514.50
2023-04-08T06:41:54.832Z,102498.69
2023-04-08T06:47:34.978Z,102518.28
2023-04-08T06:52:38.093Z,102528.00
2023-04-08T06:57:41.094Z,102512.00
2023-04-08T07:02:46.393Z,102550.09
2023-04-08T07:07:49.793Z,102550.44
2023-04-08T07:12:53.381Z,102551.16
2023-04-08T07:17:58.988Z,102555.75
2023-04-08T07:23:02.121Z,102557.84
2023-04-08T07:28:05.385Z,102565.78
2023-04-08T07:33:09.784Z,102573.63
2023-04-08T07:38:13.559Z,102574.56
2023-04-08T07:43:16.711Z,102573.94
2023-04-08T07:48:21.119Z,102583.25
2023-04-08T07:53:26.454Z,102570.06
2023-04-08T07:58:29.589Z,102594.91
2023-04-08T08:03:34.393Z,102602.28
2023-04-08T08:08:37.627Z,102601.16
2023-04-08T08:13:40.644Z,102595.00
2023-04-08T08:18:45.091Z,102603.19
2023-04-08T08:23:49.049Z,102613.91
2023-04-08T08:28:52.508Z,102600.34
2023-04-08T08:33:56.888Z,102592.16
2023-04-08T08:39:00.092Z,102617.88
2023-04-08T08:44:04.296Z,102606.44
2023-04-08T08:49:09.214Z,102616.75
2023-04-08T08:54:12.925Z,102634.03
2023-04-08T08:59:17.646Z,102627.94
2023-04-08T09:04:23.170Z,102617.72
2023-04-08T09:09:27.382Z,102621.91
2023-04-08T09:14:30.751Z,102642.03
2023-04-08T09:19:35.289Z,102636.44
2023-04-08T09:24:39.352Z,102609.06
2023-04-08T09:29:42.447Z,102631.94
2023-04-08T09:34:46.998Z,102638.84
2023-04-08T09:39:50.878Z,102635.59
2023-04-08T09:44:56.070Z,102633.88
2023-04-08T09:50:09.116Z,102651.66
2023-04-08T09:55:14.494Z,102632.50
2023-04-08T10:00:19.310Z,102643.72
2023-04-08T10:05:26.037Z,102624.69
2023-04-08T10:10:29.662Z,102635.91
2023-04-08T10:15:34.625Z,102632.28
2023-04-08T10:20:46.024Z,102629.03
2023-04-08T10:25:52.334Z,102620.59
2023-04-08T10:30:56.679Z,102621.13
2023-04-08T10:36:11.431Z,102630.94
2023-04-08T10:41:21.645Z,102630.78
2023-04-08T10:46:25.742Z,102615.53
2023-04-08T10:51:35.050Z,102635.41
2023-04-08T10:56:44.774Z,102622.22
2023-04-08T11:01:50.192Z,102622.34
2023-04-08T11:06:54.942Z,102608.47
2023-04-08T11:11:58.187Z,102589.13
2023-04-08T11:17:01.878Z,102609.72
2023-04-08T11:22:07.764Z,102599.94
2023-04-08T11:27:11.298Z,102594.13
2023-04-08T11:32:14.702Z,102592.19
2023-04-08T11:37:27.922Z,102587.16
2023-04-08T11:42:34.440Z,102591.97
2023-04-08T11:47:38.003Z,102592.00
2023-04-08T11:52:57.081Z,102580.41
2023-04-08T11:58:04.837Z,102579.91
2023-04-08T12:03:08.579Z,102574.31
2023-04-08T12:08:13.232Z,102584.56
2023-04-08T12:13:16.238Z,102592.50
2023-04-08T12:18:19.497Z,102590.50
2023-04-08T12:23:23.961Z,102589.09
2023-04-08T12:28:27.077Z,102586.00
2023-04-08T12:33:30.140Z,102576.88
2023-04-08T12:38:34.653Z,102573.25
2023-04-08T12:43:39.123Z,102558.28
2023-04-08T12:48:42.517Z,102570.84
2023-04-08T12:53:46.989Z,102565.03
2023-04-08T12:58:50.246Z,102564.09
2023-04-08T13:03:53.597Z,102555.00
2023-04-08T13:08:58.047Z,102562.22
2023-04-08T13:14:01.276Z,102549.53
2023-04-08T13:19:04.377Z,102560.34
2023-04-08T13:24:08.931Z,102545.91
2023-04-08T13:29:12.072Z,102546.94
2023-04-08T13:34:15.042Z,102536.34
2023-04-08T13:39:19.577Z,102542.13
2023-04-08T13:44:22.558Z,102533.66
2023-04-08T13:49:26.153Z,102523.78
2023-04-08T13:54:31.180Z,102526.63
2023-04-08T13:59:34.473Z,102504.28
2023-04-08T14:04:37.603Z,102511.81
2023-04-08T14:09:42.124Z,102526.66
2023-04-08T14:14:45.134Z,102532.06
2023-04-08T14:19:48.532Z,102524.66
2023-04-08T14:24:53.720Z,102512.97
2023-04-08T14:29:56.907Z,102519.47
2023-04-08T14:35:00.092Z,102524.19
2023-04-08T14:40:05.195Z,102521.66
2023-04-08T14:45:11.634Z,102517.06
2023-04-08T14:50:15.003Z,102502.97
2023-04-08T14:55:22.619Z,102500.19
2023-04-08T15:00:26.099Z,102515.06
2023-04-08T15:05:29.165Z,102509.78
2023-04-08T15:10:33.806Z,102505.22
2023-04-08T15:15:37.290Z,102500.88
2023-04-08T15:20:40.758Z,102513.97
2023-04-08T15:25:45.344Z,102509.59
2023-04-08T15:30:48.634Z,102512.44
2023-04-08T15:35:52.240Z,102504.38
2023-04-08T15:40:56.901Z,102506.34
2023-04-08T15:46:00.113Z,102511.34
2023-04-08T15:51:08.966Z,102505.22
2023-04-08T15:56:16.224Z,102507.38
2023-04-08T16:01:20.294Z,102502.19
2023-04-08T16:06:23.642Z,102515.91
2023-04-08T16:11:34.718Z,102512.03
2023-04-08T16:16:43.874Z,102501.47
2023-04-08T16:21:47.008Z,102512.59
2023-04-08T16:26:51.749Z,102508.56
2023-04-08T16:31:55.325Z,102511.72
2023-04-08T16:36:58.462Z,102516.06
2023-04-08T16:42:02.896Z,102518.44
2023-04-08T16:47:06.014Z,102524.47
2023-04-08T16:52:09.090Z,102523.50
2023-04-08T16:57:13.681Z,102532.88
2023-04-08T17:02:16.929Z,102527.78
2023-04-08T17:07:20.028Z,102536.44
2023-04-08T17:12:25.063Z,102537.41
2023-04-08T17:17:28.097Z,102537.19
2023-04-08T17:22:31.166Z,102545.94
2023-04-08T17:27:35.643Z,102528.19
2023-04-08T17:32:39.162Z,102528.50
2023-04-08T17:37:42.285Z,102528.63
2023-04-08T17:42:47.451Z,102534.09
2023-04-08T17:47:51.850Z,102535.47
2023-04-08T17:52:55.048Z,102533.22
2023-04-08T17:57:59.600Z,102521.47
2023-04-08T18:03:02.597Z,102528.88
2023-04-08T18:08:05.822Z,102532.53
2023-04-08T18:13:11.920Z,102549.25
2023-04-08T18:18:19.667Z,102558.34
2023-04-08T18:23:23.094Z,102542.97
2023-04-08T18:28:28.012Z,102558.31
2023-04-08T18:33:31.300Z,102561.34
2023-04-08T18:38:36.225Z,102564.34
2023-04-08T18:43:41.365Z,102574.88
2023-04-08T18:48:44.403Z,102583.69
2023-04-08T18:53:47.491Z,102594.25
2023-04-08T18:58:54.770Z,102588.31
2023-04-08T19:03:58.006Z,102589.25
2023-04-08T19:09:01.168Z,102589.25
2023-04-08T19:14:07.656Z,102593.78
2023-04-08T19:19:11.051Z,102586.91
2023-04-08T19:24:14.087Z,102584.44
2023-04-08T19:29:23.037Z,102593.63
2023-04-08T19:34:26.350Z,102588.53
2023-04-08T19:39:29.446Z,102586.97
2023-04-08T19:44:34.548Z,102577.31
2023-04-08T19:49:38.963Z,102594.34
2023-04-08T19:54:43.569Z,102607.09
2023-04-08T19:59:49.844Z,102601.56
2023-04-08T20:04:52.877Z,102600.16
2023-04-08T20:09:55.994Z,102619.59
2023-04-08T20:15:00.962Z,102606.16
2023-04-08T20:20:05.468Z,102615.44
2023-04-08T20:25:08.687Z,102618.06
2023-04-08T20:30:14.257Z,102630.44
2023-04-08T20:35:17.791Z,102629.03
2023-04-08T20:40:21.016Z,102621.56
2023-04-08T20:45:26.301Z,102622.38
2023-04-08T20:50:30.200Z,102617.31
2023-04-08T20:55:33.563Z,102623.19
2023-04-08T21:00:38.148Z,102632.28
2023-04-08T21:05:42.095Z,102626.34
2023-04-08T21:10:45.445Z,102626.94
2023-04-08T21:15:50.162Z,102639.47
2023-04-08T21:20:53.395Z,102627.97
2023-04-08T21:25:56.658Z,102634.91
2023-04-08T21:31:10.762Z,102620.88
2023-04-08T21:36:14.090Z,102628.88
2023-04-08T21:41:17.292Z,102640.16
2023-04-08T21:46:21.830Z,102622.84
2023-04-08T21:51:24.853Z,102620.94
2023-04-08T21:56:28.055Z,102630.84
2023-04-08T22:01:32.849Z,102613.47
2023-04-08T22:06:36.325Z,102632.97
2023-04-08T22:11:40.827Z,102632.06
2023-04-08T22:16:45.533Z,102634.47
2023-04-08T22:21:50.356Z,102625.97
2023-04-08T22:26:54.217Z,102646.81
2023-04-08T22:31:58.783Z,102637.25
2023-04-08T22:37:01.808Z,102629.66
2023-04-08T22:42:04.895Z,102627.03
2023-04-08T22:47:09.689Z,102629.59
2023-04-08T22:52:12.907Z,102631.72
2023-04-08T22:57:15.995Z,102638.50
2023-04-08T23:02:20.651Z,102641.31
2023-04-08T23:07:24.313Z,102634.84
2023-04-08T23:12:27.164Z,102627.16
2023-04-08T23:17:31.530Z,102633.94
2023-04-08T23:22:34.514Z,102630.38
2023-04-08T23:27:37.639Z,102611.91
2023-04-08T23:32:42.053Z,102625.53
2023-04-08T23:37:45.039Z,102614.53
2023-04-08T23:42:48.503Z,102618.75
2023-04-08T23:47:52.972Z,102622.78
2023-04-08T23:52:56.130Z,102621.72
2023-04-08T23:58:00.078Z,102615.03
